Disclaimer

Please do not use the information listed here in-flight or in-navigation, as they are not provided to us by the airports but are provided by volunteers, so they might be outdated.

Search


Regions


Airport information page

Radio informations:
CAEN TWR - 124.425 MHz
DEAUVILLE APP - 120.35 MHz

Airport informations:
Latitude: 49° 10' 24.00" N
Longitude: 000° 27' 00.00" W
Elevation: 256 feet - 78 meters
Operating hours: Remarks
Operating agency: Civil government, landing fees and diplomatic clearance may be required
Timezone: UTC+1(+2DT) - Last Sunday in March to last Sunday in October
Fuel: Jet A1, without icing nhibitor.

100/130 MIL Spec, low lead, aviation gasoline (BLUE)

Runway information:
06/24 - 3871 x 98 feet< - >1180 x 30 meters
13/31 - 6233 x 148 feet< - >1900 x 45 meters

Recent METARs:
LFRK 172030Z AUTO 10007KT 9000 NSC 04/02 Q1022 NOSIG
LFRK 172100Z AUTO 09006KT 9000 NSC 04/02 Q1022 NOSIG
LFRK 172130Z AUTO 10006KT 9000 NSC 03/02 Q1022

Airport on the map: